sensor_id;sensor_type;location;lat;lon;timestamp;temperature;humidity
51811;DHT22;52468;40.116;18.296;2023-05-13T00:00:21;17.20;82.90
51811;DHT22;52468;40.116;18.296;2023-05-13T00:02:49;17.10;82.80
51811;DHT22;52468;40.116;18.296;2023-05-13T00:05:16;17.10;82.80
51811;DHT22;52468;40.116;18.296;2023-05-13T00:07:44;17.10;82.90
51811;DHT22;52468;40.116;18.296;2023-05-13T00:10:12;17.10;82.90
51811;DHT22;52468;40.116;18.296;2023-05-13T00:12:40;17.10;82.90
51811;DHT22;52468;40.116;18.296;2023-05-13T00:15:08;17.10;82.90
51811;DHT22;52468;40.116;18.296;2023-05-13T00:17:36;17.10;82.80
51811;DHT22;52468;40.116;18.296;2023-05-13T00:20:05;17.10;82.90
51811;DHT22;52468;40.116;18.296;2023-05-13T00:22:33;17.10;83.00
51811;DHT22;52468;40.116;18.296;2023-05-13T00:25:01;17.10;83.20
51811;DHT22;52468;40.116;18.296;2023-05-13T00:27:28;17.10;83.00
51811;DHT22;52468;40.116;18.296;2023-05-13T00:29:59;17.10;83.00
51811;DHT22;52468;40.116;18.296;2023-05-13T00:32:27;17.10;83.00
51811;DHT22;52468;40.116;18.296;2023-05-13T00:34:56;17.00;82.90
51811;DHT22;52468;40.116;18.296;2023-05-13T00:37:24;17.10;82.90
51811;DHT22;52468;40.116;18.296;2023-05-13T00:39:51;17.00;82.90
51811;DHT22;52468;40.116;18.296;2023-05-13T00:42:19;17.00;83.00
51811;DHT22;52468;40.116;18.296;2023-05-13T00:44:47;17.00;83.00
51811;DHT22;52468;40.116;18.296;2023-05-13T00:47:15;17.00;83.10
51811;DHT22;52468;40.116;18.296;2023-05-13T00:49:43;17.00;83.20
51811;DHT22;52468;40.116;18.296;2023-05-13T00:52:11;17.00;83.30
51811;DHT22;52468;40.116;18.296;2023-05-13T00:54:39;17.00;83.30
51811;DHT22;52468;40.116;18.296;2023-05-13T00:57:07;17.00;83.40
51811;DHT22;52468;40.116;18.296;2023-05-13T00:59:35;17.00;83.30
51811;DHT22;52468;40.116;18.296;2023-05-13T01:02:15;17.00;83.40
51811;DHT22;52468;40.116;18.296;2023-05-13T01:08:06;17.00;83.30
51811;DHT22;52468;40.116;18.296;2023-05-13T01:10:42;17.00;83.40
51811;DHT22;52468;40.116;18.296;2023-05-13T01:13:13;17.00;83.40
51811;DHT22;52468;40.116;18.296;2023-05-13T01:15:50;17.00;83.60
51811;DHT22;52468;40.116;18.296;2023-05-13T01:18:27;17.00;83.60
51811;DHT22;52468;40.116;18.296;2023-05-13T01:20:55;17.00;83.70
51811;DHT22;52468;40.116;18.296;2023-05-13T01:23:24;17.10;83.90
51811;DHT22;52468;40.116;18.296;2023-05-13T01:25:53;17.10;84.00
51811;DHT22;52468;40.116;18.296;2023-05-13T01:28:21;17.10;83.80
51811;DHT22;52468;40.116;18.296;2023-05-13T01:30:53;17.20;83.70
51811;DHT22;52468;40.116;18.296;2023-05-13T01:33:25;17.10;83.90
51811;DHT22;52468;40.116;18.296;2023-05-13T01:35:54;17.10;83.70
51811;DHT22;52468;40.116;18.296;2023-05-13T01:38:23;17.10;83.80
51811;DHT22;52468;40.116;18.296;2023-05-13T01:40:55;17.10;83.80
51811;DHT22;52468;40.116;18.296;2023-05-13T01:43:24;17.10;83.90
51811;DHT22;52468;40.116;18.296;2023-05-13T01:45:53;17.10;83.70
51811;DHT22;52468;40.116;18.296;2023-05-13T01:48:22;17.10;83.70
51811;DHT22;52468;40.116;18.296;2023-05-13T01:50:51;17.10;83.70
51811;DHT22;52468;40.116;18.296;2023-05-13T01:53:19;17.10;83.60
51811;DHT22;52468;40.116;18.296;2023-05-13T01:55:49;17.10;83.70
51811;DHT22;52468;40.116;18.296;2023-05-13T01:58:17;17.00;83.80
51811;DHT22;52468;40.116;18.296;2023-05-13T02:00:46;17.00;83.80
51811;DHT22;52468;40.116;18.296;2023-05-13T02:03:14;17.00;83.70
51811;DHT22;52468;40.116;18.296;2023-05-13T02:05:41;16.90;83.80
51811;DHT22;52468;40.116;18.296;2023-05-13T02:08:09;16.90;83.90
51811;DHT22;52468;40.116;18.296;2023-05-13T02:10:38;16.90;83.80
51811;DHT22;52468;40.116;18.296;2023-05-13T02:13:06;16.90;84.00
51811;DHT22;52468;40.116;18.296;2023-05-13T02:15:34;16.90;84.20
51811;DHT22;52468;40.116;18.296;2023-05-13T02:18:01;16.90;84.30
51811;DHT22;52468;40.116;18.296;2023-05-13T02:20:29;17.00;84.50
51811;DHT22;52468;40.116;18.296;2023-05-13T02:22:57;17.00;84.60
51811;DHT22;52468;40.116;18.296;2023-05-13T02:25:27;17.00;84.70
51811;DHT22;52468;40.116;18.296;2023-05-13T02:27:55;17.00;84.60
51811;DHT22;52468;40.116;18.296;2023-05-13T02:30:23;17.00;84.90
51811;DHT22;52468;40.116;18.296;2023-05-13T02:32:54;17.00;85.10
51811;DHT22;52468;40.116;18.296;2023-05-13T02:35:23;17.10;85.00
51811;DHT22;52468;40.116;18.296;2023-05-13T02:37:52;17.10;84.80
51811;DHT22;52468;40.116;18.296;2023-05-13T02:40:21;17.10;84.70
51811;DHT22;52468;40.116;18.296;2023-05-13T02:42:49;17.10;84.90
51811;DHT22;52468;40.116;18.296;2023-05-13T02:45:22;17.20;84.70
51811;DHT22;52468;40.116;18.296;2023-05-13T02:47:54;17.20;84.60
51811;DHT22;52468;40.116;18.296;2023-05-13T02:50:23;17.20;84.80
51811;DHT22;52468;40.116;18.296;2023-05-13T02:52:51;17.30;84.50
51811;DHT22;52468;40.116;18.296;2023-05-13T02:55:20;17.20;84.60
51811;DHT22;52468;40.116;18.296;2023-05-13T02:57:47;17.20;84.80
51811;DHT22;52468;40.116;18.296;2023-05-13T03:00:16;17.30;84.70
51811;DHT22;52468;40.116;18.296;2023-05-13T03:02:43;17.20;84.80
51811;DHT22;52468;40.116;18.296;2023-05-13T03:05:11;17.30;85.00
51811;DHT22;52468;40.116;18.296;2023-05-13T03:07:39;17.40;85.10
51811;DHT22;52468;40.116;18.296;2023-05-13T03:10:08;17.50;85.20
51811;DHT22;52468;40.116;18.296;2023-05-13T03:12:36;17.50;85.00
51811;DHT22;52468;40.116;18.296;2023-05-13T03:15:05;17.50;84.90
51811;DHT22;52468;40.116;18.296;2023-05-13T03:17:33;17.60;84.90
51811;DHT22;52468;40.116;18.296;2023-05-13T03:20:01;17.60;84.70
51811;DHT22;52468;40.116;18.296;2023-05-13T03:22:32;17.60;84.60
51811;DHT22;52468;40.116;18.296;2023-05-13T03:24:59;17.70;84.60
51811;DHT22;52468;40.116;18.296;2023-05-13T03:27:34;17.70;84.70
51811;DHT22;52468;40.116;18.296;2023-05-13T03:30:02;17.80;84.60
51811;DHT22;52468;40.116;18.296;2023-05-13T03:32:31;17.90;84.50
51811;DHT22;52468;40.116;18.296;2023-05-13T03:34:59;18.00;84.40
51811;DHT22;52468;40.116;18.296;2023-05-13T03:37:29;18.00;84.50
51811;DHT22;52468;40.116;18.296;2023-05-13T03:39:57;18.10;84.40
51811;DHT22;52468;40.116;18.296;2023-05-13T03:42:25;18.00;84.50
51811;DHT22;52468;40.116;18.296;2023-05-13T03:44:55;18.10;84.70
51811;DHT22;52468;40.116;18.296;2023-05-13T03:47:23;18.20;84.50
51811;DHT22;52468;40.116;18.296;2023-05-13T03:49:52;18.20;84.30
51811;DHT22;52468;40.116;18.296;2023-05-13T03:52:20;18.20;84.30
51811;DHT22;52468;40.116;18.296;2023-05-13T03:54:48;18.30;84.20
51811;DHT22;52468;40.116;18.296;2023-05-13T03:57:16;18.20;84.30
51811;DHT22;52468;40.116;18.296;2023-05-13T03:59:44;18.30;84.20
51811;DHT22;52468;40.116;18.296;2023-05-13T04:02:12;18.30;84.20
51811;DHT22;52468;40.116;18.296;2023-05-13T04:04:40;18.30;84.00
51811;DHT22;52468;40.116;18.296;2023-05-13T04:07:08;18.40;84.30
51811;DHT22;52468;40.116;18.296;2023-05-13T04:09:36;18.40;84.10
51811;DHT22;52468;40.116;18.296;2023-05-13T04:12:04;18.40;84.00
51811;DHT22;52468;40.116;18.296;2023-05-13T04:14:32;18.40;84.00
51811;DHT22;52468;40.116;18.296;2023-05-13T04:17:00;18.50;84.10
51811;DHT22;52468;40.116;18.296;2023-05-13T04:19:28;18.60;83.80
51811;DHT22;52468;40.116;18.296;2023-05-13T04:21:55;18.50;83.70
51811;DHT22;52468;40.116;18.296;2023-05-13T04:24:23;18.60;83.70
51811;DHT22;52468;40.116;18.296;2023-05-13T04:26:52;18.60;83.90
51811;DHT22;52468;40.116;18.296;2023-05-13T04:29:20;18.70;83.70
51811;DHT22;52468;40.116;18.296;2023-05-13T04:31:47;18.70;83.70
51811;DHT22;52468;40.116;18.296;2023-05-13T04:34:15;18.80;83.30
51811;DHT22;52468;40.116;18.296;2023-05-13T04:36:45;18.90;83.30
51811;DHT22;52468;40.116;18.296;2023-05-13T04:39:15;19.00;83.10
51811;DHT22;52468;40.116;18.296;2023-05-13T04:41:43;19.10;82.90
51811;DHT22;52468;40.116;18.296;2023-05-13T04:44:11;19.20;82.40
51811;DHT22;52468;40.116;18.296;2023-05-13T04:46:39;19.30;82.40
51811;DHT22;52468;40.116;18.296;2023-05-13T04:49:07;19.40;82.10
51811;DHT22;52468;40.116;18.296;2023-05-13T04:51:37;19.50;82.00
51811;DHT22;52468;40.116;18.296;2023-05-13T04:54:05;19.60;81.80
51811;DHT22;52468;40.116;18.296;2023-05-13T04:56:33;19.80;82.00
51811;DHT22;52468;40.116;18.296;2023-05-13T04:59:01;20.00;82.00
51811;DHT22;52468;40.116;18.296;2023-05-13T05:01:29;20.10;81.00
51811;DHT22;52468;40.116;18.296;2023-05-13T05:03:57;20.20;80.50
51811;DHT22;52468;40.116;18.296;2023-05-13T05:06:25;20.20;79.80
51811;DHT22;52468;40.116;18.296;2023-05-13T05:08:54;20.10;79.60
51811;DHT22;52468;40.116;18.296;2023-05-13T05:11:23;20.00;79.40
51811;DHT22;52468;40.116;18.296;2023-05-13T05:13:52;20.00;79.40
51811;DHT22;52468;40.116;18.296;2023-05-13T05:16:20;19.80;78.90
51811;DHT22;52468;40.116;18.296;2023-05-13T05:18:48;19.80;79.30
51811;DHT22;52468;40.116;18.296;2023-05-13T05:21:16;19.70;79.40
51811;DHT22;52468;40.116;18.296;2023-05-13T05:23:48;19.70;79.60
51811;DHT22;52468;40.116;18.296;2023-05-13T05:26:17;19.70;79.40
51811;DHT22;52468;40.116;18.296;2023-05-13T05:28:45;19.60;79.60
51811;DHT22;52468;40.116;18.296;2023-05-13T05:31:15;19.70;79.70
51811;DHT22;52468;40.116;18.296;2023-05-13T05:33:43;19.80;79.30
51811;DHT22;52468;40.116;18.296;2023-05-13T05:36:11;19.80;79.20
51811;DHT22;52468;40.116;18.296;2023-05-13T05:38:39;19.90;79.20
51811;DHT22;52468;40.116;18.296;2023-05-13T05:41:09;20.00;78.90
51811;DHT22;52468;40.116;18.296;2023-05-13T05:43:37;19.90;78.70
51811;DHT22;52468;40.116;18.296;2023-05-13T05:46:05;19.80;79.00
51811;DHT22;52468;40.116;18.296;2023-05-13T05:48:33;19.80;78.90
51811;DHT22;52468;40.116;18.296;2023-05-13T05:51:01;19.80;79.10
51811;DHT22;52468;40.116;18.296;2023-05-13T05:53:31;19.90;78.80
51811;DHT22;52468;40.116;18.296;2023-05-13T05:56:01;19.90;78.70
51811;DHT22;52468;40.116;18.296;2023-05-13T05:58:29;19.90;78.90
51811;DHT22;52468;40.116;18.296;2023-05-13T06:00:57;19.90;78.90
51811;DHT22;52468;40.116;18.296;2023-05-13T06:03:27;20.00;78.90
51811;DHT22;52468;40.116;18.296;2023-05-13T06:05:55;20.10;78.40
51811;DHT22;52468;40.116;18.296;2023-05-13T06:08:22;20.30;78.10
51811;DHT22;52468;40.116;18.296;2023-05-13T06:10:57;20.50;77.70
51811;DHT22;52468;40.116;18.296;2023-05-13T06:13:25;20.50;77.20
51811;DHT22;52468;40.116;18.296;2023-05-13T06:15:54;20.60;76.60
51811;DHT22;52468;40.116;18.296;2023-05-13T06:18:22;20.50;76.30
51811;DHT22;52468;40.116;18.296;2023-05-13T06:20:50;20.40;76.30
51811;DHT22;52468;40.116;18.296;2023-05-13T06:23:18;20.50;76.10
51811;DHT22;52468;40.116;18.296;2023-05-13T06:25:46;20.60;76.50
51811;DHT22;52468;40.116;18.296;2023-05-13T06:28:14;20.90;76.00
51811;DHT22;52468;40.116;18.296;2023-05-13T06:30:43;20.90;75.60
51811;DHT22;52468;40.116;18.296;2023-05-13T06:33:10;21.00;75.40
51811;DHT22;52468;40.116;18.296;2023-05-13T06:35:39;21.00;75.20
51811;DHT22;52468;40.116;18.296;2023-05-13T06:38:08;21.10;75.00
51811;DHT22;52468;40.116;18.296;2023-05-13T06:40:36;21.30;74.20
51811;DHT22;52468;40.116;18.296;2023-05-13T06:43:05;21.50;73.60
51811;DHT22;52468;40.116;18.296;2023-05-13T06:45:37;21.50;73.30
51811;DHT22;52468;40.116;18.296;2023-05-13T06:48:05;21.70;72.10
51811;DHT22;52468;40.116;18.296;2023-05-13T06:50:33;21.70;71.50
51811;DHT22;52468;40.116;18.296;2023-05-13T06:53:01;21.90;71.20
51811;DHT22;52468;40.116;18.296;2023-05-13T06:55:30;22.20;71.60
51811;DHT22;52468;40.116;18.296;2023-05-13T06:57:58;22.60;69.10
51811;DHT22;52468;40.116;18.296;2023-05-13T07:00:26;22.70;68.60
51811;DHT22;52468;40.116;18.296;2023-05-13T07:02:53;22.70;68.20
51811;DHT22;52468;40.116;18.296;2023-05-13T07:05:21;22.70;67.60
51811;DHT22;52468;40.116;18.296;2023-05-13T07:07:49;22.60;67.40
51811;DHT22;52468;40.116;18.296;2023-05-13T07:10:20;22.40;68.10
51811;DHT22;52468;40.116;18.296;2023-05-13T07:12:48;22.30;68.60
51811;DHT22;52468;40.116;18.296;2023-05-13T07:15:15;22.30;69.10
51811;DHT22;52468;40.116;18.296;2023-05-13T07:17:43;22.30;68.80
51811;DHT22;52468;40.116;18.296;2023-05-13T07:20:11;22.40;67.40
51811;DHT22;52468;40.116;18.296;2023-05-13T07:22:39;22.30;67.70
51811;DHT22;52468;40.116;18.296;2023-05-13T07:25:07;22.20;67.90
51811;DHT22;52468;40.116;18.296;2023-05-13T07:27:35;22.20;67.40
51811;DHT22;52468;40.116;18.296;2023-05-13T07:30:03;22.10;67.40
51811;DHT22;52468;40.116;18.296;2023-05-13T07:32:31;22.00;68.40
51811;DHT22;52468;40.116;18.296;2023-05-13T07:34:59;21.80;69.30
51811;DHT22;52468;40.116;18.296;2023-05-13T07:37:28;21.60;70.20
51811;DHT22;52468;40.116;18.296;2023-05-13T07:39:55;21.40;71.10
51811;DHT22;52468;40.116;18.296;2023-05-13T07:42:23;21.30;71.90
51811;DHT22;52468;40.116;18.296;2023-05-13T07:44:52;21.10;72.40
51811;DHT22;52468;40.116;18.296;2023-05-13T07:47:20;21.10;73.00
51811;DHT22;52468;40.116;18.296;2023-05-13T07:49:48;21.10;73.40
51811;DHT22;52468;40.116;18.296;2023-05-13T07:52:16;21.10;73.60
51811;DHT22;52468;40.116;18.296;2023-05-13T07:54:44;21.00;73.90
51811;DHT22;52468;40.116;18.296;2023-05-13T07:57:12;21.00;74.20
51811;DHT22;52468;40.116;18.296;2023-05-13T07:59:40;21.00;74.20
51811;DHT22;52468;40.116;18.296;2023-05-13T08:02:10;21.10;74.10
51811;DHT22;52468;40.116;18.296;2023-05-13T08:04:38;21.10;74.30
51811;DHT22;52468;40.116;18.296;2023-05-13T08:07:07;21.10;74.10
51811;DHT22;52468;40.116;18.296;2023-05-13T08:09:35;21.10;74.00
51811;DHT22;52468;40.116;18.296;2023-05-13T08:12:02;21.10;74.50
51811;DHT22;52468;40.116;18.296;2023-05-13T08:14:30;21.10;74.70
51811;DHT22;52468;40.116;18.296;2023-05-13T08:16:58;21.10;74.60
51811;DHT22;52468;40.116;18.296;2023-05-13T08:19:26;21.20;74.50
51811;DHT22;52468;40.116;18.296;2023-05-13T08:21:54;21.40;74.50
51811;DHT22;52468;40.116;18.296;2023-05-13T08:24:22;21.60;73.80
51811;DHT22;52468;40.116;18.296;2023-05-13T08:26:49;21.80;74.00
51811;DHT22;52468;40.116;18.296;2023-05-13T08:29:17;22.10;73.30
51811;DHT22;52468;40.116;18.296;2023-05-13T08:31:45;22.40;72.50
51811;DHT22;52468;40.116;18.296;2023-05-13T08:34:13;22.60;71.80
51811;DHT22;52468;40.116;18.296;2023-05-13T08:36:41;22.80;71.00
51811;DHT22;52468;40.116;18.296;2023-05-13T08:39:09;22.80;70.60
51811;DHT22;52468;40.116;18.296;2023-05-13T08:41:38;22.90;69.70
51811;DHT22;52468;40.116;18.296;2023-05-13T08:44:10;22.90;69.40
51811;DHT22;52468;40.116;18.296;2023-05-13T08:46:40;23.10;69.20
51811;DHT22;52468;40.116;18.296;2023-05-13T08:49:11;23.40;67.90
51811;DHT22;52468;40.116;18.296;2023-05-13T08:51:39;23.70;66.50
51811;DHT22;52468;40.116;18.296;2023-05-13T08:54:09;24.00;64.80
51811;DHT22;52468;40.116;18.296;2023-05-13T08:56:37;24.10;63.00
51811;DHT22;52468;40.116;18.296;2023-05-13T08:59:06;24.20;62.20
51811;DHT22;52468;40.116;18.296;2023-05-13T09:01:34;24.10;60.50
51811;DHT22;52468;40.116;18.296;2023-05-13T09:04:05;24.00;61.50
51811;DHT22;52468;40.116;18.296;2023-05-13T09:06:35;24.20;61.30
51811;DHT22;52468;40.116;18.296;2023-05-13T09:09:03;24.40;60.80
51811;DHT22;52468;40.116;18.296;2023-05-13T09:11:32;24.30;59.70
51811;DHT22;52468;40.116;18.296;2023-05-13T09:14:02;24.20;59.10
51811;DHT22;52468;40.116;18.296;2023-05-13T09:16:32;24.20;59.70
51811;DHT22;52468;40.116;18.296;2023-05-13T09:19:03;24.60;58.70
51811;DHT22;52468;40.116;18.296;2023-05-13T09:21:34;25.20;57.80
51811;DHT22;52468;40.116;18.296;2023-05-13T09:24:10;25.60;56.30
51811;DHT22;52468;40.116;18.296;2023-05-13T09:26:41;26.00;54.30
51811;DHT22;52468;40.116;18.296;2023-05-13T09:31:53;26.30;52.80
51811;DHT22;52468;40.116;18.296;2023-05-13T09:34:30;26.70;51.50
51811;DHT22;52468;40.116;18.296;2023-05-13T09:37:05;27.20;49.80
51811;DHT22;52468;40.116;18.296;2023-05-13T09:39:39;27.90;48.30
51811;DHT22;52468;40.116;18.296;2023-05-13T09:42:15;27.90;46.30
51811;DHT22;52468;40.116;18.296;2023-05-13T09:44:44;27.80;45.80
51811;DHT22;52468;40.116;18.296;2023-05-13T09:47:13;27.80;45.60
51811;DHT22;52468;40.116;18.296;2023-05-13T09:49:43;28.00;44.00
51811;DHT22;52468;40.116;18.296;2023-05-13T09:52:15;28.00;43.50
51811;DHT22;52468;40.116;18.296;2023-05-13T09:54:43;28.00;42.30
51811;DHT22;52468;40.116;18.296;2023-05-13T09:57:12;27.70;42.20
51811;DHT22;52468;40.116;18.296;2023-05-13T09:59:40;27.70;43.60
51811;DHT22;52468;40.116;18.296;2023-05-13T10:02:08;27.50;43.50
51811;DHT22;52468;40.116;18.296;2023-05-13T10:04:37;27.40;43.30
51811;DHT22;52468;40.116;18.296;2023-05-13T10:07:05;27.70;43.10
51811;DHT22;52468;40.116;18.296;2023-05-13T10:09:35;28.00;42.10
51811;DHT22;52468;40.116;18.296;2023-05-13T10:12:06;28.00;41.60
51811;DHT22;52468;40.116;18.296;2023-05-13T10:14:36;28.00;42.10
51811;DHT22;52468;40.116;18.296;2023-05-13T10:17:05;27.90;41.40
51811;DHT22;52468;40.116;18.296;2023-05-13T10:19:34;27.80;42.80
51811;DHT22;52468;40.116;18.296;2023-05-13T10:22:03;27.60;43.90
51811;DHT22;52468;40.116;18.296;2023-05-13T10:24:32;27.30;45.90
51811;DHT22;52468;40.116;18.296;2023-05-13T10:27:02;26.90;45.90
51811;DHT22;52468;40.116;18.296;2023-05-13T10:29:33;26.50;46.00
51811;DHT22;52468;40.116;18.296;2023-05-13T10:32:02;26.20;47.00
51811;DHT22;52468;40.116;18.296;2023-05-13T10:34:31;26.00;47.80
51811;DHT22;52468;40.116;18.296;2023-05-13T10:37:36;25.80;49.20
51811;DHT22;52468;40.116;18.296;2023-05-13T10:43:12;26.00;49.90
51811;DHT22;52468;40.116;18.296;2023-05-13T10:48:25;26.40;49.50
51811;DHT22;52468;40.116;18.296;2023-05-13T10:53:29;25.50;52.40
51811;DHT22;52468;40.116;18.296;2023-05-13T10:55:58;25.00;54.30
51811;DHT22;52468;40.116;18.296;2023-05-13T10:58:34;24.80;55.60
51811;DHT22;52468;40.116;18.296;2023-05-13T11:03:58;24.00;58.80
51811;DHT22;52468;40.116;18.296;2023-05-13T11:08:57;23.30;61.60
51811;DHT22;52468;40.116;18.296;2023-05-13T11:11:28;22.90;62.40
51811;DHT22;52468;40.116;18.296;2023-05-13T11:16:36;22.30;63.80
51811;DHT22;52468;40.116;18.296;2023-05-13T11:19:11;22.00;64.40
51811;DHT22;52468;40.116;18.296;2023-05-13T11:21:50;21.80;65.20
51811;DHT22;52468;40.116;18.296;2023-05-13T11:24:21;21.60;66.10
51811;DHT22;52468;40.116;18.296;2023-05-13T11:26:56;21.60;66.60
51811;DHT22;52468;40.116;18.296;2023-05-13T11:29:31;21.60;66.90
51811;DHT22;52468;40.116;18.296;2023-05-13T11:32:01;21.60;67.50
51811;DHT22;52468;40.116;18.296;2023-05-13T11:34:30;21.50;68.30
51811;DHT22;52468;40.116;18.296;2023-05-13T11:37:09;21.30;68.90
51811;DHT22;52468;40.116;18.296;2023-05-13T11:39:40;21.30;70.20
51811;DHT22;52468;40.116;18.296;2023-05-13T11:42:09;21.50;70.70
51811;DHT22;52468;40.116;18.296;2023-05-13T11:44:44;21.70;69.90
51811;DHT22;52468;40.116;18.296;2023-05-13T11:47:13;21.60;68.80
51811;DHT22;52468;40.116;18.296;2023-05-13T11:49:42;21.40;69.10
51811;DHT22;52468;40.116;18.296;2023-05-13T11:52:15;21.30;69.70
51811;DHT22;52468;40.116;18.296;2023-05-13T11:54:53;21.30;69.60
51811;DHT22;52468;40.116;18.296;2023-05-13T11:59:54;21.00;70.20
51811;DHT22;52468;40.116;18.296;2023-05-13T12:02:24;20.90;70.80
51811;DHT22;52468;40.116;18.296;2023-05-13T12:04:53;21.00;71.20
51811;DHT22;52468;40.116;18.296;2023-05-13T12:07:22;21.20;71.30
51811;DHT22;52468;40.116;18.296;2023-05-13T12:09:52;21.30;70.60
51811;DHT22;52468;40.116;18.296;2023-05-13T12:12:20;21.40;69.00
51811;DHT22;52468;40.116;18.296;2023-05-13T12:14:48;21.40;68.20
51811;DHT22;52468;40.116;18.296;2023-05-13T12:17:20;21.30;68.00
51811;DHT22;52468;40.116;18.296;2023-05-13T12:20:26;21.10;68.10
51811;DHT22;52468;40.116;18.296;2023-05-13T12:22:54;21.00;69.00
51811;DHT22;52468;40.116;18.296;2023-05-13T12:25:38;21.10;69.50
51811;DHT22;52468;40.116;18.296;2023-05-13T12:30:40;21.80;67.20
51811;DHT22;52468;40.116;18.296;2023-05-13T12:33:13;22.40;66.00
51811;DHT22;52468;40.116;18.296;2023-05-13T12:35:43;22.90;64.90
51811;DHT22;52468;40.116;18.296;2023-05-13T12:38:14;23.40;62.50
51811;DHT22;52468;40.116;18.296;2023-05-13T12:40:44;23.80;59.30
51811;DHT22;52468;40.116;18.296;2023-05-13T12:43:13;24.30;57.00
51811;DHT22;52468;40.116;18.296;2023-05-13T12:45:44;25.00;55.40
51811;DHT22;52468;40.116;18.296;2023-05-13T12:48:12;25.60;52.20
51811;DHT22;52468;40.116;18.296;2023-05-13T12:50:40;25.80;49.50
51811;DHT22;52468;40.116;18.296;2023-05-13T12:53:08;25.60;49.40
51811;DHT22;52468;40.116;18.296;2023-05-13T12:55:36;25.50;50.30
51811;DHT22;52468;40.116;18.296;2023-05-13T12:58:07;25.20;51.10
51811;DHT22;52468;40.116;18.296;2023-05-13T13:00:37;24.70;53.10
51811;DHT22;52468;40.116;18.296;2023-05-13T13:03:06;24.40;54.60
51811;DHT22;52468;40.116;18.296;2023-05-13T13:05:35;24.10;56.40
51811;DHT22;52468;40.116;18.296;2023-05-13T13:08:03;23.80;56.90
51811;DHT22;52468;40.116;18.296;2023-05-13T13:10:34;23.50;57.80
51811;DHT22;52468;40.116;18.296;2023-05-13T13:13:02;23.20;58.50
51811;DHT22;52468;40.116;18.296;2023-05-13T13:15:30;23.00;58.60
51811;DHT22;52468;40.116;18.296;2023-05-13T13:17:59;22.80;58.30
51811;DHT22;52468;40.116;18.296;2023-05-13T13:20:27;22.50;58.50
51811;DHT22;52468;40.116;18.296;2023-05-13T13:22:59;22.00;59.40
51811;DHT22;52468;40.116;18.296;2023-05-13T13:25:28;21.90;59.40
51811;DHT22;52468;40.116;18.296;2023-05-13T13:27:56;21.60;60.50
51811;DHT22;52468;40.116;18.296;2023-05-13T13:30:24;21.30;61.50
51811;DHT22;52468;40.116;18.296;2023-05-13T13:32:51;21.20;59.80
51811;DHT22;52468;40.116;18.296;2023-05-13T13:35:19;21.10;57.50
51811;DHT22;52468;40.116;18.296;2023-05-13T13:37:48;20.90;57.00
51811;DHT22;52468;40.116;18.296;2023-05-13T13:40:15;20.60;56.40
51811;DHT22;52468;40.116;18.296;2023-05-13T13:42:45;20.50;56.80
51811;DHT22;52468;40.116;18.296;2023-05-13T13:45:13;20.40;57.40
51811;DHT22;52468;40.116;18.296;2023-05-13T13:47:41;20.20;58.40
51811;DHT22;52468;40.116;18.296;2023-05-13T13:50:09;20.30;58.60
51811;DHT22;52468;40.116;18.296;2023-05-13T13:52:37;20.50;57.90
51811;DHT22;52468;40.116;18.296;2023-05-13T13:55:05;20.70;57.80
51811;DHT22;52468;40.116;18.296;2023-05-13T13:57:33;21.00;57.20
51811;DHT22;52468;40.116;18.296;2023-05-13T14:00:01;21.40;56.80
51811;DHT22;52468;40.116;18.296;2023-05-13T14:02:31;21.90;56.20
51811;DHT22;52468;40.116;18.296;2023-05-13T14:04:59;22.60;55.50
51811;DHT22;52468;40.116;18.296;2023-05-13T14:07:27;24.20;52.50
51811;DHT22;52468;40.116;18.296;2023-05-13T14:09:55;26.50;47.30
51811;DHT22;52468;40.116;18.296;2023-05-13T14:12:23;28.40;42.40
51811;DHT22;52468;40.116;18.296;2023-05-13T14:14:51;29.50;40.20
51811;DHT22;52468;40.116;18.296;2023-05-13T14:17:19;29.20;40.60
51811;DHT22;52468;40.116;18.296;2023-05-13T14:19:47;29.00;41.00
51811;DHT22;52468;40.116;18.296;2023-05-13T14:22:18;29.10;41.80
51811;DHT22;52468;40.116;18.296;2023-05-13T14:24:46;29.90;40.30
51811;DHT22;52468;40.116;18.296;2023-05-13T14:27:13;30.30;39.10
51811;DHT22;52468;40.116;18.296;2023-05-13T14:29:41;30.20;39.40
51811;DHT22;52468;40.116;18.296;2023-05-13T14:32:09;30.00;38.90
51811;DHT22;52468;40.116;18.296;2023-05-13T14:34:37;29.70;39.10
51811;DHT22;52468;40.116;18.296;2023-05-13T14:37:05;29.00;40.70
51811;DHT22;52468;40.116;18.296;2023-05-13T14:39:33;28.00;42.00
51811;DHT22;52468;40.116;18.296;2023-05-13T14:42:01;27.40;43.30
51811;DHT22;52468;40.116;18.296;2023-05-13T14:44:29;26.60;44.60
51811;DHT22;52468;40.116;18.296;2023-05-13T14:46:57;25.80;46.30
51811;DHT22;52468;40.116;18.296;2023-05-13T14:49:25;25.20;48.10
51811;DHT22;52468;40.116;18.296;2023-05-13T14:51:52;24.70;49.40
51811;DHT22;52468;40.116;18.296;2023-05-13T14:54:20;24.10;50.40
51811;DHT22;52468;40.116;18.296;2023-05-13T14:56:50;23.40;52.20
51811;DHT22;52468;40.116;18.296;2023-05-13T14:59:18;22.70;54.50
51811;DHT22;52468;40.116;18.296;2023-05-13T15:01:46;22.20;55.80
51811;DHT22;52468;40.116;18.296;2023-05-13T15:04:14;21.90;57.20
51811;DHT22;52468;40.116;18.296;2023-05-13T15:06:42;21.80;57.90
51811;DHT22;52468;40.116;18.296;2023-05-13T15:09:09;21.70;58.40
51811;DHT22;52468;40.116;18.296;2023-05-13T15:11:37;21.80;58.50
51811;DHT22;52468;40.116;18.296;2023-05-13T15:14:06;21.70;58.50
51811;DHT22;52468;40.116;18.296;2023-05-13T15:16:34;21.50;59.20
51811;DHT22;52468;40.116;18.296;2023-05-13T15:19:02;21.40;59.90
51811;DHT22;52468;40.116;18.296;2023-05-13T15:21:30;21.10;60.90
51811;DHT22;52468;40.116;18.296;2023-05-13T15:23:58;21.10;61.20
51811;DHT22;52468;40.116;18.296;2023-05-13T15:26:26;21.10;61.40
51811;DHT22;52468;40.116;18.296;2023-05-13T15:28:54;20.90;62.00
51811;DHT22;52468;40.116;18.296;2023-05-13T15:31:22;20.80;62.30
51811;DHT22;52468;40.116;18.296;2023-05-13T15:33:50;20.60;62.70
51811;DHT22;52468;40.116;18.296;2023-05-13T15:36:17;20.50;63.30
51811;DHT22;52468;40.116;18.296;2023-05-13T15:38:45;20.50;63.40
51811;DHT22;52468;40.116;18.296;2023-05-13T15:41:13;20.40;63.90
51811;DHT22;52468;40.116;18.296;2023-05-13T15:43:41;20.20;64.80
51811;DHT22;52468;40.116;18.296;2023-05-13T15:46:09;20.10;65.30
51811;DHT22;52468;40.116;18.296;2023-05-13T15:48:37;20.10;66.00
51811;DHT22;52468;40.116;18.296;2023-05-13T15:51:04;20.00;66.70
51811;DHT22;52468;40.116;18.296;2023-05-13T15:53:33;19.90;67.70